createdAt,value
2022-08-10T00:01:08.658Z,23.22
2022-08-10T00:03:35.617Z,23.27
2022-08-10T00:06:02.602Z,23.27
2022-08-10T00:08:30.158Z,23.18
2022-08-10T00:10:57.752Z,23.29
2022-08-10T00:13:26.787Z,23.38
2022-08-10T00:15:55.464Z,23.19
2022-08-10T00:18:34.367Z,23.19
2022-08-10T00:21:05.175Z,23.19
2022-08-10T00:23:32.605Z,23.31
2022-08-10T00:25:59.590Z,23.33
2022-08-10T00:28:27.265Z,23.15
2022-08-10T00:30:54.486Z,23.19
2022-08-10T00:33:21.638Z,23.03
2022-08-10T00:35:48.901Z,22.97
2022-08-10T00:38:15.850Z,23.01
2022-08-10T00:40:42.858Z,23.11
2022-08-10T00:43:09.785Z,23.15
2022-08-10T00:45:36.944Z,23.22
2022-08-10T00:48:04.366Z,23.20
2022-08-10T00:50:32.218Z,23.27
2022-08-10T00:52:59.431Z,23.12
2022-08-10T00:55:26.744Z,23.07
2022-08-10T00:57:54.976Z,23.08
2022-08-10T01:00:24.520Z,23.08
2022-08-10T01:02:52.118Z,23.08
2022-08-10T01:05:20.863Z,23.31
2022-08-10T01:08:12.462Z,23.50
2022-08-10T01:12:37.694Z,23.26
2022-08-10T01:14:26.386Z,23.42
2022-08-10T01:17:25.558Z,23.42
2022-08-10T01:20:27.513Z,23.82
2022-08-10T01:23:29.631Z,23.54
2022-08-10T01:26:11.092Z,23.28
2022-08-10T01:28:51.461Z,23.19
2022-08-10T01:31:24.084Z,23.18
2022-08-10T01:34:01.924Z,23.23
2022-08-10T01:36:34.923Z,23.48
2022-08-10T01:39:04.840Z,23.61
2022-08-10T01:41:41.808Z,23.47
2022-08-10T01:44:45.695Z,23.65
2022-08-10T01:47:49.385Z,23.66
2022-08-10T01:50:26.089Z,23.54
2022-08-10T01:52:58.790Z,23.61
2022-08-10T01:55:28.191Z,23.42
2022-08-10T01:57:56.836Z,23.35
2022-08-10T02:00:25.140Z,23.47
2022-08-10T02:02:54.355Z,23.75
2022-08-10T02:05:24.509Z,23.78
2022-08-10T02:07:52.659Z,23.76
2022-08-10T02:10:22.687Z,24.08
2022-08-10T02:12:50.605Z,24.10
2022-08-10T02:15:20.881Z,24.08
2022-08-10T02:17:59.968Z,23.83
2022-08-10T02:20:35.525Z,23.84
2022-08-10T02:23:10.798Z,23.79
2022-08-10T02:25:43.393Z,23.69
2022-08-10T02:28:30.558Z,23.77
2022-08-10T02:31:12.041Z,23.94
2022-08-10T02:33:56.689Z,24.26
2022-08-10T02:36:28.199Z,24.19
2022-08-10T02:39:00.873Z,24.31
2022-08-10T02:45:14.170Z,24.11
2022-08-10T02:45:21.568Z,24.28
2022-08-10T02:47:57.446Z,24.13
2022-08-10T02:50:32.601Z,24.05
2022-08-10T02:53:54.755Z,23.83
2022-08-10T02:56:20.297Z,23.78
2022-08-10T02:58:55.625Z,24.02
2022-08-10T03:01:35.295Z,23.67
2022-08-10T03:04:06.763Z,23.53
2022-08-10T03:06:45.466Z,23.53
2022-08-10T03:09:17.177Z,23.29
2022-08-10T03:12:36.328Z,23.58
2022-08-10T03:14:36.283Z,23.46
2022-08-10T03:17:05.149Z,23.51
2022-08-10T03:20:35.045Z,23.47
2022-08-10T03:22:22.196Z,23.61
2022-08-10T03:24:50.031Z,23.72
2022-08-10T03:27:17.997Z,23.87
2022-08-10T03:30:23.368Z,24.03
2022-08-10T03:32:34.529Z,24.09
2022-08-10T03:35:02.146Z,24.40
2022-08-10T03:37:29.298Z,24.25
2022-08-10T03:39:56.430Z,24.05
2022-08-10T03:42:24.097Z,24.28
2022-08-10T03:44:52.961Z,24.09
2022-08-10T03:47:21.435Z,24.29
2022-08-10T03:49:49.736Z,24.36
2022-08-10T03:52:18.973Z,24.86
2022-08-10T03:54:46.330Z,24.67
2022-08-10T03:57:14.036Z,24.84
2022-08-10T03:59:41.249Z,24.97
2022-08-10T04:02:44.345Z,24.91
2022-08-10T04:04:55.579Z,25.10
2022-08-10T04:07:22.990Z,24.80
2022-08-10T04:09:55.731Z,24.68
2022-08-10T04:12:25.979Z,24.42
2022-08-10T04:14:53.751Z,24.60
2022-08-10T04:18:04.193Z,24.76
2022-08-10T04:20:16.380Z,24.81
2022-08-10T04:22:44.941Z,25.09
2022-08-10T04:25:14.846Z,25.08
2022-08-10T04:27:42.864Z,24.79
2022-08-10T04:30:10.663Z,25.21
2022-08-10T04:32:38.188Z,25.04
2022-08-10T04:35:07.042Z,25.14
2022-08-10T04:37:37.425Z,25.38
2022-08-10T04:40:28.317Z,25.06
2022-08-10T04:43:10.395Z,25.30
2022-08-10T04:45:47.613Z,25.09
2022-08-10T04:48:42.780Z,25.48
2022-08-10T04:51:03.325Z,25.24
2022-08-10T04:53:31.249Z,25.40
2022-08-10T04:55:58.298Z,25.41
2022-08-10T04:58:25.319Z,25.56
2022-08-10T05:00:52.318Z,25.67
2022-08-10T05:03:19.457Z,25.06
2022-08-10T05:05:46.404Z,25.29
2022-08-10T05:08:15.592Z,25.23
2022-08-10T05:10:42.575Z,25.74
2022-08-10T05:13:09.530Z,25.58
2022-08-10T05:15:36.624Z,25.90
2022-08-10T05:18:09.768Z,25.90
2022-08-10T05:20:39.414Z,26.31
2022-08-10T05:23:07.422Z,26.33
2022-08-10T05:25:38.039Z,26.13
2022-08-10T05:28:06.770Z,26.22
2022-08-10T05:30:34.504Z,26.45
2022-08-10T05:33:05.042Z,26.57
2022-08-10T05:35:55.303Z,26.48
2022-08-10T05:38:23.444Z,26.71
2022-08-10T05:40:51.055Z,27.19
2022-08-10T05:43:21.443Z,26.71
2022-08-10T05:46:16.948Z,26.75
2022-08-10T05:48:53.919Z,26.76
2022-08-10T05:51:25.652Z,27.00
2022-08-10T05:54:02.803Z,27.01
2022-08-10T05:56:55.788Z,27.26
2022-08-10T06:00:12.680Z,27.23
2022-08-10T06:02:30.841Z,27.55
2022-08-10T06:05:06.440Z,27.58
2022-08-10T06:07:37.505Z,27.53
2022-08-10T06:10:10.199Z,27.88
2022-08-10T06:12:55.729Z,28.16
2022-08-10T06:15:52.283Z,28.01
2022-08-10T06:18:17.050Z,27.83
2022-08-10T06:20:45.807Z,27.69
2022-08-10T06:23:13.009Z,28.13
2022-08-10T06:26:09.784Z,28.15
2022-08-10T06:28:31.380Z,28.38
2022-08-10T06:31:00.512Z,28.17
2022-08-10T06:33:31.856Z,28.20
2022-08-10T06:36:00.672Z,28.25
2022-08-10T06:38:32.059Z,28.37
2022-08-10T06:41:03.234Z,28.32
2022-08-10T06:43:33.984Z,28.19
2022-08-10T06:46:07.233Z,28.35
2022-08-10T06:48:41.856Z,28.23
2022-08-10T06:51:15.481Z,28.54
2022-08-10T06:53:54.055Z,28.84
2022-08-10T06:56:36.464Z,28.45
2022-08-10T06:59:14.609Z,28.91
2022-08-10T07:02:02.470Z,29.06
2022-08-10T07:05:07.735Z,28.98
2022-08-10T07:07:38.835Z,29.06
2022-08-10T07:10:07.157Z,29.35
2022-08-10T07:12:36.427Z,29.26
2022-08-10T07:15:04.488Z,29.28
2022-08-10T07:17:35.998Z,28.81
2022-08-10T07:20:09.397Z,29.02
2022-08-10T07:23:01.545Z,29.22
2022-08-10T07:25:27.618Z,29.32
2022-08-10T07:27:59.849Z,29.39
2022-08-10T07:30:32.467Z,28.96
2022-08-10T07:33:01.599Z,28.73
2022-08-10T07:35:36.492Z,29.09
2022-08-10T07:38:13.176Z,29.15
2022-08-10T07:40:42.502Z,29.42
2022-08-10T07:43:10.786Z,29.50
2022-08-10T07:45:38.042Z,29.87
2022-08-10T07:48:10.011Z,30.35
2022-08-10T07:50:40.616Z,30.59
2022-08-10T07:53:23.233Z,30.12
2022-08-10T07:56:08.208Z,30.05
2022-08-10T07:58:50.706Z,29.95
2022-08-10T08:01:24.217Z,29.67
2022-08-10T08:04:06.007Z,29.72
2022-08-10T08:06:40.518Z,30.17
2022-08-10T08:09:07.821Z,30.41
2022-08-10T08:11:37.201Z,30.51
2022-08-10T08:14:07.681Z,30.57
2022-08-10T08:16:36.926Z,30.73
2022-08-10T08:24:09.712Z,31.17
2022-08-10T08:24:41.931Z,31.36
2022-08-10T08:27:11.157Z,30.75
2022-08-10T08:29:42.300Z,31.06
2022-08-10T08:32:11.674Z,31.53
2022-08-10T08:34:42.615Z,31.48
2022-08-10T08:37:11.463Z,31.13
2022-08-10T08:39:38.752Z,31.31
2022-08-10T08:42:15.749Z,31.89
2022-08-10T08:45:00.176Z,32.01
2022-08-10T08:48:11.959Z,31.82
2022-08-10T08:50:47.502Z,31.93
2022-08-10T08:53:22.393Z,32.30
2022-08-10T08:56:06.096Z,32.19
2022-08-10T08:58:52.334Z,32.36
2022-08-10T09:01:22.004Z,32.19
2022-08-10T09:04:21.227Z,32.79
2022-08-10T09:07:58.973Z,33.70
2022-08-10T09:10:34.152Z,34.11
2022-08-10T09:13:16.875Z,34.27
2022-08-10T09:16:08.441Z,33.33
2022-08-10T09:19:03.833Z,33.34
2022-08-10T09:21:43.086Z,31.81
2022-08-10T09:24:45.096Z,30.88
2022-08-10T09:27:20.667Z,31.15
2022-08-10T09:30:00.687Z,30.33
2022-08-10T09:36:19.322Z,29.90
2022-08-10T09:36:19.475Z,30.23
2022-08-10T09:38:54.711Z,28.88
2022-08-10T09:41:35.978Z,28.93
2022-08-10T09:44:30.366Z,29.55
2022-08-10T09:47:12.006Z,30.20
2022-08-10T09:49:55.825Z,30.06
2022-08-10T09:52:59.185Z,31.15
2022-08-10T09:56:19.174Z,30.87
2022-08-10T09:59:26.737Z,31.32
2022-08-10T10:02:00.593Z,30.79
2022-08-10T10:05:03.294Z,31.52
2022-08-10T10:07:30.885Z,31.68
2022-08-10T10:10:17.163Z,29.56
2022-08-10T10:12:50.642Z,30.71
2022-08-10T10:15:37.823Z,31.40
2022-08-10T10:18:07.818Z,32.35
2022-08-10T10:20:40.542Z,33.24
2022-08-10T10:23:22.626Z,32.82
2022-08-10T10:26:18.416Z,32.79
2022-08-10T10:32:18.584Z,32.70
2022-08-10T10:34:59.504Z,32.24
2022-08-10T10:38:01.319Z,32.14
2022-08-10T10:40:17.043Z,31.56
2022-08-10T10:43:15.812Z,30.74
2022-08-10T10:46:30.197Z,30.15
2022-08-10T10:49:51.206Z,31.31
2022-08-10T10:52:39.211Z,30.91
2022-08-10T10:56:14.669Z,32.07
2022-08-10T10:59:54.512Z,32.85
2022-08-10T11:02:06.065Z,32.90
2022-08-10T11:04:57.172Z,33.47
2022-08-10T11:07:45.973Z,33.88
2022-08-10T11:10:33.386Z,32.98
2022-08-10T11:13:03.033Z,33.59
2022-08-10T11:16:05.853Z,33.68
2022-08-10T11:18:35.808Z,33.25
2022-08-10T11:21:23.571Z,33.54
2022-08-10T11:24:48.930Z,33.90
2022-08-10T11:26:50.927Z,35.07
2022-08-10T11:29:30.432Z,33.89
2022-08-10T11:32:03.763Z,32.99
2022-08-10T11:34:46.867Z,32.87
2022-08-10T11:37:26.048Z,33.14
2022-08-10T11:39:59.510Z,33.65
2022-08-10T11:42:49.582Z,32.35
2022-08-10T11:45:19.795Z,32.33
2022-08-10T11:48:54.406Z,32.79
2022-08-10T11:51:35.496Z,32.77
2022-08-10T11:54:08.247Z,33.29
2022-08-10T11:56:50.798Z,33.71
2022-08-10T11:59:38.045Z,32.59
2022-08-10T12:02:07.416Z,32.61
2022-08-10T12:04:36.031Z,33.68
2022-08-10T12:07:05.239Z,34.26
2022-08-10T12:10:06.868Z,33.72
2022-08-10T12:12:45.686Z,34.38
2022-08-10T12:15:38.571Z,34.37
2022-08-10T12:18:15.484Z,35.22
2022-08-10T12:20:46.407Z,35.51
2022-08-10T12:23:31.389Z,35.19
2022-08-10T12:26:13.404Z,35.76
2022-08-10T12:28:58.856Z,35.13
2022-08-10T12:31:35.315Z,33.32
2022-08-10T12:34:23.682Z,33.80
2022-08-10T12:37:29.482Z,33.13
2022-08-10T12:40:33.776Z,33.32
2022-08-10T12:44:06.948Z,31.76
2022-08-10T12:46:32.416Z,32.15
2022-08-10T12:49:09.022Z,32.84
2022-08-10T12:51:49.541Z,33.12
2022-08-10T12:54:31.971Z,33.83
2022-08-10T12:57:22.443Z,33.92
2022-08-10T12:59:54.686Z,32.53
2022-08-10T13:02:51.702Z,31.84
2022-08-10T13:05:19.337Z,31.96
2022-08-10T13:08:27.121Z,32.49
2022-08-10T13:11:03.349Z,32.11
2022-08-10T13:13:39.979Z,32.14
2022-08-10T13:16:07.766Z,32.35
2022-08-10T13:18:43.625Z,32.21
2022-08-10T13:21:20.751Z,32.29
2022-08-10T13:24:11.307Z,31.57
2022-08-10T13:27:03.772Z,31.39
2022-08-10T13:29:36.489Z,32.17
2022-08-10T13:32:10.809Z,32.82
2022-08-10T13:34:45.318Z,33.12
2022-08-10T13:37:16.186Z,33.59
2022-08-10T13:39:59.676Z,32.33
2022-08-10T13:42:32.403Z,31.64
2022-08-10T13:45:16.431Z,30.45
2022-08-10T13:47:49.705Z,31.17
2022-08-10T13:50:34.590Z,31.39
2022-08-10T13:53:09.991Z,30.90
2022-08-10T13:55:55.261Z,31.23
2022-08-10T13:58:32.883Z,31.14
2022-08-10T14:01:03.042Z,31.90
2022-08-10T14:03:37.598Z,32.46
2022-08-10T14:06:06.996Z,31.86
2022-08-10T14:08:36.157Z,30.71
2022-08-10T14:11:11.338Z,30.52
2022-08-10T14:13:46.214Z,30.74
2022-08-10T14:16:13.889Z,31.09
2022-08-10T14:18:44.970Z,31.00
2022-08-10T14:21:14.825Z,31.12
2022-08-10T14:23:52.216Z,31.07
2022-08-10T14:26:31.305Z,30.88
2022-08-10T14:29:10.854Z,31.12
2022-08-10T14:32:00.901Z,30.77
2022-08-10T14:36:23.337Z,30.28
2022-08-10T14:37:38.057Z,30.55
2022-08-10T14:40:11.962Z,30.83
2022-08-10T14:42:47.478Z,30.10
2022-08-10T14:45:24.867Z,30.40
2022-08-10T14:48:00.825Z,30.25
2022-08-10T14:50:32.799Z,30.30
2022-08-10T14:53:09.756Z,30.31
2022-08-10T14:55:58.324Z,29.98
2022-08-10T14:58:31.052Z,29.80
2022-08-10T15:00:59.772Z,29.65
2022-08-10T15:04:01.369Z,29.69
2022-08-10T15:06:21.067Z,29.86
2022-08-10T15:09:18.895Z,29.91
2022-08-10T15:12:15.900Z,29.74
2022-08-10T15:14:43.645Z,29.62
2022-08-10T15:17:16.179Z,29.88
2022-08-10T15:20:02.737Z,30.26
2022-08-10T15:22:38.062Z,30.80
2022-08-10T15:25:18.764Z,30.26
2022-08-10T15:27:56.126Z,29.84
2022-08-10T15:30:31.014Z,29.90
2022-08-10T15:34:00.233Z,29.54
2022-08-10T15:36:35.385Z,29.72
2022-08-10T15:39:17.187Z,30.41
2022-08-10T15:42:21.195Z,29.40
2022-08-10T15:44:50.753Z,29.17
2022-08-10T15:47:45.407Z,29.46
2022-08-10T15:50:25.367Z,29.67
2022-08-10T15:53:01.924Z,29.33
2022-08-10T15:55:43.916Z,29.69
2022-08-10T15:58:39.317Z,29.03
2022-08-10T16:02:14.098Z,28.63
2022-08-10T16:04:32.332Z,28.48
2022-08-10T16:07:08.248Z,28.75
2022-08-10T16:10:24.278Z,28.93
2022-08-10T16:12:34.585Z,28.76
2022-08-10T16:15:11.151Z,28.72
2022-08-10T16:17:55.325Z,28.37
2022-08-10T16:20:31.238Z,28.79
2022-08-10T16:23:02.379Z,28.73
2022-08-10T16:25:48.327Z,28.77
2022-08-10T16:28:23.233Z,28.75
2022-08-10T16:30:56.064Z,28.93
2022-08-10T16:33:53.050Z,28.90
2022-08-10T16:36:20.907Z,28.23
2022-08-10T16:38:50.851Z,28.31
2022-08-10T16:42:02.873Z,28.35
2022-08-10T16:44:13.493Z,28.51
2022-08-10T16:46:44.685Z,28.29
2022-08-10T16:49:15.876Z,27.98
2022-08-10T16:51:48.222Z,27.83
2022-08-10T16:54:22.344Z,28.01
2022-08-10T16:56:53.459Z,27.74
2022-08-10T16:59:24.184Z,28.04
2022-08-10T17:01:53.802Z,27.60
2022-08-10T17:04:23.521Z,27.73
2022-08-10T17:06:57.793Z,27.82
2022-08-10T17:09:30.365Z,27.31
2022-08-10T17:11:59.503Z,26.91
2022-08-10T17:14:29.146Z,26.89
2022-08-10T17:17:24.649Z,26.80
2022-08-10T17:19:57.710Z,26.39
2022-08-10T17:22:45.794Z,26.85
2022-08-10T17:25:21.470Z,26.36
2022-08-10T17:28:04.628Z,26.00
2022-08-10T17:30:57.381Z,26.12
2022-08-10T17:33:30.350Z,26.18
2022-08-10T17:36:03.154Z,26.09
2022-08-10T17:38:33.674Z,26.41
2022-08-10T17:41:00.547Z,25.79
2022-08-10T17:43:58.383Z,26.13
2022-08-10T17:46:18.983Z,25.78
2022-08-10T17:48:46.066Z,25.36
2022-08-10T17:51:15.551Z,25.43
2022-08-10T17:53:47.742Z,25.24
2022-08-10T17:56:16.688Z,25.41
2022-08-10T17:58:51.307Z,25.42
2022-08-10T18:01:40.340Z,25.48
2022-08-10T18:04:14.889Z,25.18
2022-08-10T18:06:44.065Z,24.99
2022-08-10T18:09:24.783Z,24.79
2022-08-10T18:11:59.443Z,24.68
2022-08-10T18:14:29.627Z,24.54
2022-08-10T18:16:59.087Z,24.54
2022-08-10T18:19:30.061Z,24.80
2022-08-10T18:21:58.778Z,24.82
2022-08-10T18:24:28.926Z,24.62
2022-08-10T18:26:58.247Z,24.59
2022-08-10T18:29:28.716Z,24.65
2022-08-10T18:32:01.751Z,24.23
2022-08-10T18:34:31.865Z,24.40
2022-08-10T18:37:00.108Z,23.61
2022-08-10T18:39:36.377Z,23.69
2022-08-10T18:42:15.060Z,23.53
2022-08-10T18:44:47.563Z,23.35
2022-08-10T18:47:34.983Z,23.27
2022-08-10T18:50:10.183Z,23.48
2022-08-10T18:52:39.987Z,23.45
2022-08-10T18:55:46.126Z,23.28
2022-08-10T18:59:00.660Z,23.44
2022-08-10T19:01:30.029Z,23.27
2022-08-10T19:04:19.142Z,23.03
2022-08-10T19:06:59.386Z,22.88
2022-08-10T19:10:03.782Z,22.69
2022-08-10T19:12:36.903Z,22.56
2022-08-10T19:15:10.496Z,22.44
2022-08-10T19:18:04.447Z,22.48
2022-08-10T19:20:58.420Z,22.47
2022-08-10T19:24:00.950Z,22.34
2022-08-10T19:26:49.564Z,22.33
2022-08-10T19:30:10.142Z,22.35
2022-08-10T19:32:32.340Z,22.17
2022-08-10T19:35:17.739Z,22.29
2022-08-10T19:37:44.632Z,21.84
2022-08-10T19:40:44.013Z,21.85
2022-08-10T19:43:30.606Z,21.92
2022-08-10T19:46:06.133Z,21.77
2022-08-10T19:48:39.347Z,21.85
2022-08-10T19:51:23.063Z,21.68
2022-08-10T19:53:59.135Z,22.07
2022-08-10T19:56:43.537Z,21.88
2022-08-10T20:00:16.088Z,21.68
2022-08-10T20:03:23.136Z,21.76
2022-08-10T20:06:13.326Z,21.40
2022-08-10T20:08:56.866Z,21.41
2022-08-10T20:11:44.299Z,21.33
2022-08-10T20:14:21.571Z,21.27
2022-08-10T20:16:52.607Z,21.11
2022-08-10T20:19:53.044Z,21.12
2022-08-10T20:22:29.442Z,21.15
2022-08-10T20:25:01.719Z,21.10
2022-08-10T20:28:00.139Z,21.06
2022-08-10T20:30:34.979Z,20.94
2022-08-10T20:33:18.484Z,20.88
2022-08-10T20:36:05.987Z,20.79
2022-08-10T20:38:42.643Z,20.79
2022-08-10T20:41:23.231Z,20.78
2022-08-10T20:44:15.148Z,20.61
2022-08-10T20:46:54.376Z,20.60
2022-08-10T20:49:44.518Z,20.46
2022-08-10T20:52:12.904Z,20.53
2022-08-10T20:54:51.116Z,20.53
2022-08-10T20:57:56.631Z,20.55
2022-08-10T21:00:30.768Z,20.54
2022-08-10T21:03:33.088Z,20.33
2022-08-10T21:06:41.123Z,20.24
2022-08-10T21:09:25.372Z,20.20
2022-08-10T21:12:20.031Z,20.13
2022-08-10T21:15:07.412Z,20.15
2022-08-10T21:17:37.528Z,20.11
2022-08-10T21:20:14.732Z,20.30
2022-08-10T21:22:45.738Z,20.24
2022-08-10T21:25:23.843Z,20.32
2022-08-10T21:27:59.782Z,20.41
2022-08-10T21:30:53.245Z,20.14
2022-08-10T21:33:42.742Z,20.15
2022-08-10T21:36:32.363Z,20.04
2022-08-10T21:39:16.127Z,20.03
2022-08-10T21:42:35.922Z,19.91
2022-08-10T21:45:58.017Z,19.95
2022-08-10T21:48:57.584Z,19.97
2022-08-10T21:52:00.708Z,19.84
2022-08-10T21:55:00.565Z,19.85
2022-08-10T21:57:58.236Z,19.70
2022-08-10T22:00:44.087Z,19.85
2022-08-10T22:03:40.229Z,19.68
2022-08-10T22:06:27.430Z,19.57
2022-08-10T22:09:21.050Z,19.50
2022-08-10T22:12:30.783Z,19.47
2022-08-10T22:15:23.607Z,19.32
2022-08-10T22:18:31.474Z,19.34
2022-08-10T22:21:52.260Z,19.38
2022-08-10T22:28:19.815Z,19.15
2022-08-10T22:31:26.142Z,19.19
2022-08-10T22:31:31.593Z,19.21
2022-08-10T22:34:55.578Z,19.18
2022-08-10T22:38:17.234Z,19.06
2022-08-10T22:41:04.463Z,19.04
2022-08-10T22:43:52.593Z,19.15
2022-08-10T22:46:42.704Z,19.18
2022-08-10T22:49:10.156Z,19.23
2022-08-10T22:51:45.934Z,19.22
2022-08-10T22:54:57.619Z,19.23
2022-08-10T22:57:43.351Z,19.15
2022-08-10T23:00:31.686Z,19.12
2022-08-10T23:03:13.360Z,19.07
2022-08-10T23:05:55.373Z,19.07
2022-08-10T23:08:43.417Z,19.15
2022-08-10T23:11:24.927Z,19.28
2022-08-10T23:14:02.581Z,19.22
2022-08-10T23:16:54.159Z,19.22
2022-08-10T23:19:25.731Z,19.13
2022-08-10T23:22:07.568Z,19.14
2022-08-10T23:24:52.713Z,19.13
2022-08-10T23:27:38.519Z,19.11
2022-08-10T23:30:16.954Z,19.08
2022-08-10T23:32:49.250Z,19.30
2022-08-10T23:36:31.178Z,18.94
2022-08-10T23:38:15.470Z,19.06
2022-08-10T23:40:48.336Z,19.05
2022-08-10T23:43:18.522Z,19.02
2022-08-10T23:45:53.921Z,19.19
2022-08-10T23:48:29.685Z,18.97
2022-08-10T23:51:03.853Z,18.98
2022-08-10T23:53:45.133Z,18.74
2022-08-10T23:56:14.280Z,18.80
2022-08-10T23:59:08.800Z,18.79
